createdAt,value
2022-08-25T00:00:16.794Z,32.47
2022-08-25T00:02:54.111Z,30.65
2022-08-25T00:05:29.482Z,34.83
2022-08-25T00:07:59.977Z,31.90
2022-08-25T00:10:26.995Z,37.55
2022-08-25T00:12:54.277Z,31.42
2022-08-25T00:15:22.862Z,30.33
2022-08-25T00:17:49.781Z,30.38
2022-08-25T00:20:16.931Z,32.13
2022-08-25T00:22:43.863Z,31.15
2022-08-25T00:25:10.949Z,29.80
2022-08-25T00:27:38.005Z,29.23
2022-08-25T00:30:06.207Z,29.83
2022-08-25T00:32:33.498Z,28.85
2022-08-25T00:35:00.837Z,28.80
2022-08-25T00:37:31.019Z,30.17
2022-08-25T00:39:58.691Z,30.05
2022-08-25T00:42:26.348Z,29.40
2022-08-25T00:44:53.902Z,29.70
2022-08-25T00:47:21.154Z,29.00
2022-08-25T00:49:58.866Z,29.88
2022-08-25T00:52:29.492Z,30.50
2022-08-25T00:55:07.920Z,31.25
2022-08-25T00:57:44.142Z,31.90
2022-08-25T01:00:33.250Z,29.60
2022-08-25T01:05:28.509Z,31.33
2022-08-25T01:08:02.720Z,31.38
2022-08-25T01:10:33.107Z,30.00
2022-08-25T01:13:13.579Z,31.98
2022-08-25T01:15:44.597Z,29.77
2022-08-25T01:18:11.872Z,32.03
2022-08-25T01:20:39.068Z,30.20
2022-08-25T01:23:05.943Z,28.50
2022-08-25T01:25:56.984Z,30.48
2022-08-25T01:28:23.823Z,28.45
2022-08-25T01:30:51.081Z,28.63
2022-08-25T01:33:18.872Z,30.15
2022-08-25T01:35:46.303Z,28.92
2022-08-25T01:38:13.668Z,29.40
2022-08-25T01:40:42.874Z,27.98
2022-08-25T01:45:48.373Z,27.90
2022-08-25T01:48:16.330Z,26.85
2022-08-25T01:50:44.210Z,28.73
2022-08-25T01:53:20.137Z,27.08
2022-08-25T01:55:54.360Z,28.23
2022-08-25T01:58:29.057Z,25.80
2022-08-25T02:01:01.572Z,26.20
2022-08-25T02:03:29.722Z,26.48
2022-08-25T02:06:01.515Z,25.00
2022-08-25T02:08:33.515Z,26.58
2022-08-25T02:13:31.188Z,26.02
2022-08-25T02:16:01.318Z,27.00
2022-08-25T02:18:28.935Z,26.40
2022-08-25T02:20:56.020Z,24.98
2022-08-25T02:23:23.055Z,24.02
2022-08-25T02:25:50.004Z,25.20
2022-08-25T02:28:16.933Z,22.73
2022-08-25T02:30:44.058Z,27.23
2022-08-25T02:33:11.687Z,24.33
2022-08-25T02:35:38.872Z,24.40
2022-08-25T02:38:06.514Z,24.30
2022-08-25T02:40:33.833Z,22.45
2022-08-25T02:43:00.731Z,23.58
2022-08-25T02:45:27.652Z,23.20
2022-08-25T02:47:54.712Z,23.23
2022-08-25T02:50:21.655Z,23.13
2022-08-25T02:52:50.671Z,24.88
2022-08-25T02:55:18.270Z,23.08
2022-08-25T02:57:45.353Z,21.95
2022-08-25T03:00:14.955Z,22.88
2022-08-25T03:02:42.718Z,19.95
2022-08-25T03:05:11.125Z,19.67
2022-08-25T03:07:38.638Z,21.40
2022-08-25T03:10:13.562Z,18.83
2022-08-25T03:12:41.699Z,19.95
2022-08-25T03:15:14.378Z,19.95
2022-08-25T03:17:41.775Z,21.58
2022-08-25T03:20:12.546Z,24.60
2022-08-25T03:22:39.608Z,19.25
2022-08-25T03:25:25.727Z,18.27
2022-08-25T03:27:52.867Z,17.30
2022-08-25T03:30:20.145Z,18.02
2022-08-25T03:32:47.508Z,16.58
2022-08-25T03:35:14.436Z,15.85
2022-08-25T03:37:41.500Z,18.38
2022-08-25T03:40:14.741Z,15.75
2022-08-25T03:42:45.410Z,15.52
2022-08-25T03:45:14.461Z,16.08
2022-08-25T03:47:42.166Z,16.85
2022-08-25T03:50:11.527Z,14.88
2022-08-25T03:52:42.457Z,15.48
2022-08-25T03:55:13.728Z,17.55
2022-08-25T03:57:40.645Z,15.55
2022-08-25T04:00:12.327Z,14.95
2022-08-25T04:02:40.864Z,15.45
2022-08-25T04:05:09.056Z,15.85
2022-08-25T04:07:36.035Z,17.83
2022-08-25T04:10:04.320Z,15.52
2022-08-25T04:12:31.141Z,16.58
2022-08-25T04:14:58.357Z,16.58
2022-08-25T04:17:25.611Z,14.43
2022-08-25T04:19:52.477Z,18.05
2022-08-25T04:22:19.772Z,14.68
2022-08-25T04:24:46.626Z,19.33
2022-08-25T04:27:14.519Z,16.20
2022-08-25T04:29:41.869Z,16.67
2022-08-25T04:32:08.855Z,17.77
2022-08-25T04:37:06.556Z,17.27
2022-08-25T04:39:33.981Z,19.15
2022-08-25T04:42:01.895Z,17.80
2022-08-25T04:44:30.309Z,18.00
2022-08-25T04:46:57.627Z,15.93
2022-08-25T04:49:24.686Z,15.50
2022-08-25T04:51:51.866Z,20.88
2022-08-25T04:54:21.955Z,17.80
2022-08-25T04:56:50.607Z,18.25
2022-08-25T04:59:21.720Z,15.20
2022-08-25T05:01:50.165Z,13.57
2022-08-25T05:04:28.494Z,17.60
2022-08-25T05:06:56.637Z,15.27
2022-08-25T05:09:23.956Z,11.98
2022-08-25T05:11:52.616Z,15.70
2022-08-25T05:14:23.209Z,15.03
2022-08-25T05:16:53.896Z,13.50
2022-08-25T05:19:20.782Z,11.18
2022-08-25T05:21:48.004Z,15.73
2022-08-25T05:24:15.082Z,14.77
2022-08-25T05:26:43.844Z,13.50
2022-08-25T05:29:11.752Z,15.50
2022-08-25T05:31:43.225Z,17.50
2022-08-25T05:34:12.508Z,18.88
2022-08-25T05:36:43.441Z,16.20
2022-08-25T05:39:11.573Z,17.67
2022-08-25T05:41:38.557Z,12.40
2022-08-25T05:44:05.992Z,12.50
2022-08-25T05:46:33.020Z,13.57
2022-08-25T05:49:00.432Z,11.07
2022-08-25T05:51:27.470Z,12.32
2022-08-25T05:53:54.418Z,14.98
2022-08-25T05:56:21.903Z,13.82
2022-08-25T05:58:49.261Z,16.27
2022-08-25T06:01:46.449Z,14.35
2022-08-25T06:04:20.337Z,13.48
2022-08-25T06:06:48.776Z,19.33
2022-08-25T06:09:15.699Z,13.63
2022-08-25T06:11:43.127Z,13.20
2022-08-25T06:14:11.010Z,13.20
2022-08-25T06:16:39.384Z,12.30
2022-08-25T06:19:08.547Z,11.75
2022-08-25T06:21:35.864Z,14.82
2022-08-25T06:24:02.908Z,11.15
2022-08-25T06:26:29.839Z,7.82
2022-08-25T06:28:57.259Z,13.57
2022-08-25T06:31:24.550Z,8.75
2022-08-25T06:33:52.309Z,10.70
2022-08-25T06:36:19.896Z,9.63
2022-08-25T06:38:47.412Z,8.45
2022-08-25T06:41:14.636Z,12.52
2022-08-25T06:43:47.283Z,9.65
2022-08-25T06:46:18.758Z,11.45
2022-08-25T06:48:45.869Z,11.98
2022-08-25T06:51:15.262Z,9.10
2022-08-25T06:53:43.626Z,8.85
2022-08-25T06:56:11.535Z,8.63
2022-08-25T06:58:38.805Z,9.32
2022-08-25T07:01:20.140Z,8.82
2022-08-25T07:03:52.656Z,8.35
2022-08-25T07:06:19.846Z,7.47
2022-08-25T07:08:48.184Z,10.43
2022-08-25T07:11:17.389Z,9.38
2022-08-25T07:13:45.459Z,10.75
2022-08-25T07:16:12.884Z,11.77
2022-08-25T07:18:39.916Z,7.95
2022-08-25T07:21:09.197Z,7.90
2022-08-25T07:23:36.770Z,9.13
2022-08-25T07:26:36.003Z,6.65
2022-08-25T07:31:32.749Z,7.53
2022-08-25T07:34:18.286Z,6.50
2022-08-25T07:36:45.259Z,7.57
2022-08-25T07:39:13.142Z,6.57
2022-08-25T07:41:42.093Z,10.60
2022-08-25T07:44:11.187Z,7.90
2022-08-25T07:49:16.483Z,10.05
2022-08-25T07:52:03.291Z,9.82
2022-08-25T07:54:34.303Z,7.53
2022-08-25T07:57:06.337Z,7.70
2022-08-25T07:59:40.109Z,8.43
2022-08-25T08:02:17.824Z,7.03
2022-08-25T08:04:48.949Z,6.75
2022-08-25T08:07:18.857Z,6.78
2022-08-25T08:09:46.465Z,14.98
2022-08-25T08:12:13.496Z,6.18
2022-08-25T08:14:44.978Z,7.90
2022-08-25T08:17:13.772Z,7.28
2022-08-25T08:19:44.434Z,7.53
2022-08-25T08:22:15.089Z,7.32
2022-08-25T08:24:54.144Z,6.40
2022-08-25T08:27:22.635Z,10.73
2022-08-25T08:29:53.704Z,11.57
2022-08-25T08:32:21.271Z,6.03
2022-08-25T08:34:52.725Z,8.77
2022-08-25T08:37:22.956Z,7.75
2022-08-25T08:39:52.201Z,6.53
2022-08-25T08:42:46.692Z,10.13
2022-08-25T08:45:24.375Z,7.53
2022-08-25T08:48:01.209Z,8.45
2022-08-25T08:51:00.449Z,6.45
2022-08-25T08:53:47.366Z,9.13
2022-08-25T08:56:22.231Z,8.32
2022-08-25T08:58:52.724Z,6.43
2022-08-25T09:01:45.754Z,6.78
2022-08-25T09:04:20.115Z,8.13
2022-08-25T09:06:48.223Z,6.35
2022-08-25T09:09:20.174Z,7.53
2022-08-25T09:12:12.047Z,9.55
2022-08-25T09:14:44.074Z,7.95
2022-08-25T09:17:16.621Z,7.15
2022-08-25T09:20:02.944Z,7.22
2022-08-25T09:22:50.329Z,8.05
2022-08-25T09:28:17.824Z,5.57
2022-08-25T09:30:59.114Z,5.10
2022-08-25T09:33:27.280Z,6.55
2022-08-25T09:35:57.278Z,5.53
2022-08-25T09:38:27.343Z,6.15
2022-08-25T09:40:57.935Z,6.85
2022-08-25T09:43:33.255Z,11.18
2022-08-25T09:46:09.362Z,7.95
2022-08-25T09:48:44.165Z,6.35
2022-08-25T09:51:38.296Z,5.85
2022-08-25T09:54:13.057Z,6.18
2022-08-25T09:56:58.490Z,5.05
2022-08-25T09:59:35.682Z,9.38
2022-08-25T10:02:26.378Z,6.78
2022-08-25T10:04:54.829Z,6.93
2022-08-25T10:07:30.255Z,4.00
2022-08-25T10:10:04.207Z,8.65
2022-08-25T10:12:35.533Z,6.00
2022-08-25T10:15:29.074Z,6.50
2022-08-25T10:18:16.109Z,6.65
2022-08-25T10:20:45.071Z,7.75
2022-08-25T10:23:15.478Z,6.17
2022-08-25T10:25:57.604Z,5.28
2022-08-25T10:28:50.902Z,6.07
2022-08-25T10:31:25.821Z,7.15
2022-08-25T10:34:01.884Z,8.02
2022-08-25T10:36:30.747Z,7.47
2022-08-25T10:39:01.511Z,6.32
2022-08-25T10:41:40.056Z,6.30
2022-08-25T10:44:51.558Z,5.25
2022-08-25T10:47:47.849Z,8.57
2022-08-25T10:50:37.136Z,6.40
2022-08-25T10:53:26.458Z,5.60
2022-08-25T10:56:03.162Z,9.43
2022-08-25T10:59:14.202Z,3.80
2022-08-25T11:01:57.760Z,5.30
2022-08-25T11:04:47.163Z,4.32
2022-08-25T11:07:26.211Z,6.53
2022-08-25T11:09:58.968Z,6.50
2022-08-25T11:12:44.341Z,4.75
2022-08-25T11:15:34.140Z,7.55
2022-08-25T11:18:05.829Z,5.80
2022-08-25T11:21:07.662Z,4.03
2022-08-25T11:23:41.379Z,6.03
2022-08-25T11:26:14.915Z,5.82
2022-08-25T11:29:03.036Z,6.43
2022-08-25T11:31:30.860Z,4.53
2022-08-25T11:33:58.851Z,7.78
2022-08-25T11:36:37.581Z,5.85
2022-08-25T11:39:46.826Z,5.82
2022-08-25T11:42:38.367Z,5.30
2022-08-25T11:45:58.192Z,5.75
2022-08-25T11:49:07.307Z,6.05
2022-08-25T11:51:43.065Z,5.90
2022-08-25T11:54:48.647Z,7.30
2022-08-25T11:57:25.728Z,7.68
2022-08-25T11:59:53.820Z,6.03
2022-08-25T12:02:42.820Z,4.03
2022-08-25T12:05:24.801Z,6.68
2022-08-25T12:08:14.396Z,4.72
2022-08-25T12:11:06.104Z,7.70
2022-08-25T12:13:49.362Z,5.50
2022-08-25T12:16:43.630Z,6.65
2022-08-25T12:19:35.502Z,5.97
2022-08-25T12:22:03.389Z,6.78
2022-08-25T12:24:48.321Z,5.68
2022-08-25T12:27:28.142Z,3.47
2022-08-25T12:30:02.941Z,7.95
2022-08-25T12:32:44.366Z,6.97
2022-08-25T12:35:23.709Z,5.10
2022-08-25T12:38:01.431Z,4.88
2022-08-25T12:40:39.503Z,8.43
2022-08-25T12:43:20.215Z,5.45
2022-08-25T12:45:54.828Z,5.65
2022-08-25T12:48:28.230Z,4.93
2022-08-25T12:50:58.688Z,5.05
2022-08-25T12:53:31.336Z,6.03
2022-08-25T12:56:05.215Z,3.88
2022-08-25T12:59:07.242Z,5.07
2022-08-25T13:01:54.484Z,5.32
2022-08-25T13:04:57.142Z,5.97
2022-08-25T13:08:03.735Z,4.78
2022-08-25T13:11:01.845Z,5.85
2022-08-25T13:13:42.997Z,7.27
2022-08-25T13:16:18.807Z,4.93
2022-08-25T13:18:45.756Z,5.50
2022-08-25T13:21:19.804Z,6.05
2022-08-25T13:23:50.290Z,5.32
2022-08-25T13:26:30.780Z,6.80
2022-08-25T13:29:17.887Z,6.35
2022-08-25T13:31:55.063Z,5.27
2022-08-25T13:34:35.014Z,6.97
2022-08-25T13:37:30.337Z,3.83
2022-08-25T13:40:26.368Z,4.85
2022-08-25T13:42:59.678Z,4.00
2022-08-25T13:45:40.256Z,4.22
2022-08-25T13:48:22.529Z,3.97
2022-08-25T13:50:52.451Z,5.70
2022-08-25T13:53:25.439Z,5.45
2022-08-25T13:55:57.996Z,7.43
2022-08-25T13:58:38.589Z,5.05
2022-08-25T14:01:47.700Z,5.47
2022-08-25T14:04:39.731Z,8.30
2022-08-25T14:07:20.905Z,7.80
2022-08-25T14:10:05.110Z,6.97
2022-08-25T14:12:38.223Z,5.50
2022-08-25T14:15:09.382Z,6.57
2022-08-25T14:17:40.323Z,4.88
2022-08-25T14:20:17.526Z,8.57
2022-08-25T14:22:44.426Z,10.85
2022-08-25T14:25:11.423Z,7.55
2022-08-25T14:28:03.647Z,5.78
2022-08-25T14:30:31.118Z,6.30
2022-08-25T14:32:58.661Z,8.35
2022-08-25T14:35:25.556Z,8.18
2022-08-25T14:37:53.164Z,6.20
2022-08-25T14:40:20.283Z,7.95
2022-08-25T14:42:47.792Z,6.22
2022-08-25T14:45:16.441Z,8.73
2022-08-25T14:47:46.202Z,6.22
2022-08-25T14:50:20.863Z,8.95
2022-08-25T14:52:48.277Z,9.27
2022-08-25T14:55:31.206Z,7.45
2022-08-25T14:57:58.341Z,6.57
2022-08-25T15:00:26.279Z,8.57
2022-08-25T15:02:53.640Z,15.52
2022-08-25T15:05:28.373Z,9.13
2022-08-25T15:08:14.955Z,6.13
2022-08-25T15:10:43.451Z,9.32
2022-08-25T15:13:10.911Z,7.20
2022-08-25T15:15:52.668Z,6.38
2022-08-25T15:18:20.950Z,7.53
2022-08-25T15:20:49.890Z,7.20
2022-08-25T15:23:18.977Z,11.20
2022-08-25T15:25:48.301Z,7.25
2022-08-25T15:28:17.272Z,6.78
2022-08-25T15:30:45.187Z,6.78
2022-08-25T15:33:16.295Z,7.25
2022-08-25T15:35:46.441Z,7.40
2022-08-25T15:38:17.025Z,7.15
2022-08-25T15:40:43.889Z,7.78
2022-08-25T15:43:10.827Z,9.98
2022-08-25T15:45:38.236Z,10.90
2022-08-25T15:48:09.333Z,15.20
2022-08-25T15:50:36.890Z,15.60
2022-08-25T15:53:10.455Z,19.20
2022-08-25T15:55:41.084Z,17.27
2022-08-25T15:58:08.936Z,20.27
2022-08-25T16:00:37.713Z,23.85
2022-08-25T16:03:05.324Z,22.70
2022-08-25T16:05:37.298Z,23.65
2022-08-25T16:08:09.375Z,23.00
2022-08-25T16:10:46.813Z,27.58
2022-08-25T16:13:14.610Z,26.67
2022-08-25T16:15:47.087Z,29.70
2022-08-25T16:18:20.063Z,35.78
2022-08-25T16:20:48.688Z,28.25
2022-08-25T16:25:46.419Z,30.08
2022-08-25T16:28:16.154Z,29.38
2022-08-25T16:30:52.664Z,30.23
2022-08-25T16:33:21.522Z,28.27
2022-08-25T16:35:49.199Z,30.25
2022-08-25T16:38:16.446Z,29.63
2022-08-25T16:40:43.836Z,29.15
2022-08-25T16:43:11.859Z,31.30
2022-08-25T16:45:39.008Z,29.02
2022-08-25T16:48:07.123Z,27.05
2022-08-25T16:50:39.479Z,24.02
2022-08-25T16:53:24.900Z,28.80
2022-08-25T16:56:01.486Z,24.55
2022-08-25T16:58:30.186Z,25.40
2022-08-25T17:03:34.108Z,22.08
2022-08-25T17:06:01.499Z,22.30
2022-08-25T17:08:29.040Z,26.13
2022-08-25T17:11:26.526Z,20.77
2022-08-25T17:13:57.285Z,19.92
2022-08-25T17:16:27.997Z,22.77
2022-08-25T17:18:55.714Z,22.27
2022-08-25T17:21:24.317Z,23.92
2022-08-25T17:23:52.628Z,22.02
2022-08-25T17:26:20.181Z,19.83
2022-08-25T17:28:56.108Z,23.45
2022-08-25T17:31:23.981Z,25.27
2022-08-25T17:33:52.311Z,26.48
2022-08-25T17:36:19.595Z,23.50
2022-08-25T17:38:50.179Z,23.38
2022-08-25T17:41:18.224Z,25.52
2022-08-25T17:43:45.443Z,25.47
2022-08-25T17:46:13.301Z,25.77
2022-08-25T17:48:43.797Z,27.77
2022-08-25T17:51:11.574Z,30.73
2022-08-25T17:53:38.597Z,29.38
2022-08-25T17:56:12.379Z,28.58
2022-08-25T17:58:39.566Z,29.40
2022-08-25T18:01:07.314Z,29.67
2022-08-25T18:03:35.370Z,29.63
2022-08-25T18:06:04.606Z,32.58
2022-08-25T18:08:35.100Z,33.08
2022-08-25T18:11:04.687Z,30.15
2022-08-25T18:13:31.724Z,32.33
2022-08-25T18:15:59.172Z,32.60
2022-08-25T18:18:26.303Z,31.73
2022-08-25T18:20:53.531Z,32.70
2022-08-25T18:23:20.895Z,30.60
2022-08-25T18:25:51.073Z,30.52
2022-08-25T18:28:27.874Z,32.55
2022-08-25T18:30:55.241Z,26.92
2022-08-25T18:33:23.445Z,32.73
2022-08-25T18:35:50.334Z,31.45
2022-08-25T18:38:37.518Z,32.72
2022-08-25T18:41:08.024Z,29.08
2022-08-25T18:43:36.561Z,29.02
2022-08-25T18:46:04.937Z,27.15
2022-08-25T18:48:33.085Z,25.98
2022-08-25T18:51:00.491Z,24.97
2022-08-25T18:53:30.053Z,20.15
2022-08-25T18:56:04.479Z,24.30
2022-08-25T18:58:31.882Z,19.15
2022-08-25T19:01:01.165Z,19.50
2022-08-25T19:03:28.205Z,20.40
2022-08-25T19:05:57.881Z,24.63
2022-08-25T19:08:25.280Z,16.02
2022-08-25T19:10:53.655Z,21.33
2022-08-25T19:13:22.691Z,20.33
2022-08-25T19:15:51.262Z,20.27
2022-08-25T19:18:28.831Z,25.00
2022-08-25T19:20:56.280Z,18.83
2022-08-25T19:23:23.135Z,19.08
2022-08-25T19:25:50.031Z,21.67
2022-08-25T19:28:17.030Z,22.77
2022-08-25T19:30:50.239Z,20.60
2022-08-25T19:33:31.319Z,29.10
2022-08-25T19:36:08.722Z,29.88
2022-08-25T19:38:37.081Z,28.02
2022-08-25T19:41:09.373Z,32.33
2022-08-25T19:43:55.854Z,30.15
2022-08-25T19:46:35.328Z,28.88
2022-08-25T19:49:11.564Z,29.50
2022-08-25T19:51:40.298Z,32.88
2022-08-25T19:54:12.433Z,34.30
2022-08-25T19:56:43.975Z,34.97
2022-08-25T19:59:43.253Z,34.30
2022-08-25T20:02:24.858Z,29.23
2022-08-25T20:04:54.283Z,22.60
2022-08-25T20:07:24.920Z,27.58
2022-08-25T20:09:53.302Z,25.40
2022-08-25T20:12:21.001Z,23.38
2022-08-25T20:14:49.403Z,24.35
2022-08-25T20:17:24.641Z,22.75
2022-08-25T20:19:58.573Z,24.67
2022-08-25T20:22:27.268Z,21.02
2022-08-25T20:24:57.558Z,20.98
2022-08-25T20:27:32.986Z,19.80
2022-08-25T20:30:03.279Z,21.17
2022-08-25T20:32:32.300Z,21.58
2022-08-25T20:34:59.943Z,20.13
2022-08-25T20:37:27.202Z,18.38
2022-08-25T20:39:54.925Z,21.15
2022-08-25T20:42:24.347Z,11.38
2022-08-25T20:44:52.272Z,14.23
2022-08-25T20:47:22.663Z,11.57
2022-08-25T20:49:50.309Z,11.90
2022-08-25T20:52:19.253Z,11.88
2022-08-25T20:54:46.948Z,14.82
2022-08-25T20:57:25.533Z,11.48
2022-08-25T20:59:53.874Z,9.40
2022-08-25T21:02:21.420Z,11.05
2022-08-25T21:04:50.214Z,16.33
2022-08-25T21:09:44.881Z,7.22
2022-08-25T21:12:11.997Z,12.50
2022-08-25T21:14:40.797Z,9.70
2022-08-25T21:17:10.814Z,9.27
2022-08-25T21:19:39.076Z,8.80
2022-08-25T21:22:07.550Z,11.30
2022-08-25T21:24:35.227Z,12.15
2022-08-25T21:27:03.714Z,12.75
2022-08-25T21:29:32.814Z,5.80
2022-08-25T21:32:00.327Z,10.60
2022-08-25T21:34:29.369Z,8.27
2022-08-25T21:36:58.358Z,8.55
2022-08-25T21:39:28.658Z,10.60
2022-08-25T21:41:58.562Z,6.47
2022-08-25T21:44:27.927Z,7.97
2022-08-25T21:46:54.976Z,7.57
2022-08-25T21:49:23.422Z,6.90
2022-08-25T21:52:00.491Z,9.43
2022-08-25T21:54:29.292Z,6.80
2022-08-25T21:56:59.767Z,8.73
2022-08-25T21:59:33.317Z,11.50
2022-08-25T22:02:03.076Z,10.75
2022-08-25T22:04:30.968Z,7.80
2022-08-25T22:06:59.251Z,8.40
2022-08-25T22:09:28.225Z,10.60
2022-08-25T22:14:26.225Z,11.38
2022-08-25T22:16:54.444Z,6.03
2022-08-25T22:19:22.801Z,9.67
2022-08-25T22:21:51.039Z,9.98
2022-08-25T22:24:19.162Z,8.20
2022-08-25T22:26:47.665Z,11.88
2022-08-25T22:29:25.915Z,10.35
2022-08-25T22:31:59.467Z,9.15
2022-08-25T22:34:30.324Z,11.70
2022-08-25T22:36:59.542Z,8.23
2022-08-25T22:39:27.566Z,7.97
2022-08-25T22:41:55.407Z,8.48
2022-08-25T22:44:23.202Z,10.95
2022-08-25T22:46:50.271Z,9.90
2022-08-25T22:49:17.436Z,6.75
2022-08-25T22:51:44.410Z,6.97
2022-08-25T22:54:16.171Z,9.23
2022-08-25T22:59:13.066Z,8.15
2022-08-25T23:01:42.670Z,8.82
2022-08-25T23:04:10.786Z,8.75
2022-08-25T23:06:38.289Z,7.95
2022-08-25T23:09:06.669Z,6.05
2022-08-25T23:11:35.570Z,10.23
2022-08-25T23:14:08.168Z,6.60
2022-08-25T23:16:35.239Z,10.30
2022-08-25T23:19:05.464Z,6.93
2022-08-25T23:21:51.517Z,7.40
2022-08-25T23:24:29.981Z,7.90
2022-08-25T23:27:03.823Z,7.93
2022-08-25T23:29:33.097Z,6.57
2022-08-25T23:32:00.262Z,6.72
2022-08-25T23:34:28.480Z,6.60
2022-08-25T23:36:56.767Z,4.40
2022-08-25T23:39:24.054Z,7.60
2022-08-25T23:41:51.945Z,6.35
2022-08-25T23:44:20.916Z,8.60
2022-08-25T23:46:48.715Z,5.20
2022-08-25T23:49:18.520Z,8.65
2022-08-25T23:51:51.820Z,7.78
2022-08-25T23:54:20.784Z,7.13
2022-08-25T23:56:51.733Z,6.22
2022-08-25T23:59:24.785Z,7.63
